Lucky Thirteen — WDD8654 — position and weather

sailwx.info

Track history (hours):
 
Tides and Currents Weather Stations Pressure Air Temp Water Temp Dewpoint Dewpoint Depression Visibility Wind Speed Wind Dir Waves Ship Positions

Lucky Thirteen

Owner: Kristine L Inc., Barnegat Light, NJ. More information available from US FCC via Universal Licensing System and Coast Guard Vessel Documentation Center.

Last reported at 2018-May-26 02:40 UTC. Time now 2018-May-26 07:56 UTC.
Position N 39°45' W 074°07'.

Length 23 m.

Type: Fishing. MMSI: 367300990.

Date/timePositionNaut miles runAvg speedWind from/ knotsBaromVisibWave heightAir tempDewpointWater temp
2018-May-26 02:40N 39°45' W 074°07'0 0.0
2018-May-25 17:40N 39°45' W 074°07'0 0.0
2018-May-25 17:22N 39°45' W 074°07'0 0.0
2018-May-25 16:46N 39°45' W 074°07'0 0.0
2018-May-25 10:43N 39°45' W 074°07'0 0.0
2018-May-25 09:25N 39°45' W 074°07'0 0.0
2018-May-25 08:49N 39°45' W 074°07'0 0.0
2018-May-25 08:28N 39°45' W 074°07'0 0.0
2018-May-25 07:58N 39°45' W 074°07'0 0.0
2018-May-25 07:23N 39°45' W 074°07'2 4.7
2018-May-25 07:00N 39°46' W 074°05'3 5.7
2018-May-25 06:28N 39°48' W 074°02'13 7.6
2018-May-25 04:47N 39°52' W 073°46'2 7.3
2018-May-25 04:30N 39°53' W 073°44'4 7.4
2018-May-25 04:00N 39°54' W 073°39'4 7.5
2018-May-25 03:30N 39°56' W 073°35'4 7.6
2018-May-25 03:00N 39°57' W 073°30'4 7.6
2018-May-25 02:30N 39°58' W 073°25'4 7.5
2018-May-25 02:00N 39°60' W 073°21'4 7.6
2018-May-25 01:29N 40°01' W 073°16'42 2.5
2018-May-24 08:49N 39°45' W 074°07'0 0.0
2018-May-24 08:30N 39°45' W 074°07'2 5.0
2018-May-24 08:00N 39°46' W 074°04'1 0.0
2018-May-23 11:22N 39°47' W 074°03'4 0.2
2018-May-22 15:11N 39°45' W 074°07'0 0.0
2018-May-22 14:05N 39°45' W 074°07'0 0.0
2018-May-22 13:50N 39°45' W 074°07'0 0.0
2018-May-22 13:28N 39°45' W 074°07'0 0.1
2018-May-22 12:58N 39°45' W 074°07'0 0.1
2018-May-22 12:28N 39°45' W 074°07'0 0.0
2018-May-22 11:55N 39°45' W 074°07'0 0.0
2018-May-22 11:28N 39°45' W 074°07'0 0.0
2018-May-22 10:55N 39°45' W 074°07'0 0.0
2018-May-22 10:28N 39°45' W 074°07'0 0.0
2018-May-22 09:58N 39°45' W 074°07'0 0.1
2018-May-22 09:17N 39°45' W 074°07'1 4.2
2018-May-22 09:00N 39°46' W 074°06'3 5.0
2018-May-22 08:26N 39°47' W 074°03'3 7.4
2018-May-22 08:00N 39°48' W 073°59'4 7.4
2018-May-22 07:27N 39°50' W 073°54'3 7.5
2018-May-22 07:00N 39°51' W 073°50'4 7.5
2018-May-22 06:30N 39°53' W 073°45'4 7.7
2018-May-22 06:00N 39°54' W 073°40'4 7.6
2018-May-22 05:29N 39°56' W 073°36'23 1.2
2018-May-21 10:56N 39°47' W 074°03'4 0.2
2018-May-20 18:08N 39°45' W 074°07'0 0.0
2018-May-20 17:44N 39°45' W 074°07'0 0.0
2018-May-20 17:26N 39°45' W 074°07'0 0.0
2018-May-19 23:31N 39°45' W 074°07'0 0.0
2018-May-19 17:01N 39°45' W 074°07'0 0.0
2018-May-19 16:55N 39°45' W 074°07'0 0.0
2018-May-19 16:25N 39°45' W 074°07'0 0.0
2018-May-19 09:49N 39°45' W 074°07'0 0.0
2018-May-19 09:19N 39°45' W 074°07'0 0.0
2018-May-18 13:37N 39°45' W 074°07'0 0.0
2018-May-18 08:01N 39°45' W 074°07'0 0.0
2018-May-18 07:43N 39°45' W 074°07'0 0.0
2018-May-18 02:46N 39°45' W 074°07'0 0.0
2018-May-17 17:34N 39°45' W 074°07'0 0.0
2018-May-17 17:22N 39°45' W 074°07'0 0.0
2018-May-17 16:58N 39°45' W 074°07'0 0.0
2018-May-17 10:52N 39°45' W 074°07'0 0.0
2018-May-17 09:52N 39°45' W 074°07'0 0.0
2018-May-17 06:34N 39°45' W 074°07'0 0.0
2018-May-17 06:28N 39°45' W 074°07'0 0.0
2018-May-16 17:05N 39°45' W 074°07'0 0.0
2018-May-16 15:05N 39°45' W 074°07'0 0.0
2018-May-16 07:17N 39°45' W 074°07'0 0.0
2018-May-16 05:11N 39°45' W 074°07'0 0.0
2018-May-16 04:41N 39°45' W 074°07'0 0.0
2018-May-16 04:17N 39°45' W 074°07'  
Track history (hours):
 
Tides and Currents Weather Stations Pressure Air Temp Water Temp Dewpoint Dewpoint Depression Visibility Wind Speed Wind Dir Waves Ship Positions

Lucky Thirteen

Owner: Kristine L Inc., Barnegat Light, NJ. More information available from US FCC via Universal Licensing System and Coast Guard Vessel Documentation Center.

Last reported at 2018-May-26 02:40 UTC. Time now 2018-May-26 07:56 UTC.
Position N 39°45' W 074°07'.

Length 23 m.

Type: Fishing. MMSI: 367300990.

Date/timePositionNaut miles runAvg speedWind from/ knotsBaromVisibWave heightAir tempDewpointWater temp
2018-May-26 02:40N 39°45' W 074°07'0 0.0
2018-May-25 17:40N 39°45' W 074°07'0 0.0
2018-May-25 17:22N 39°45' W 074°07'0 0.0
2018-May-25 16:46N 39°45' W 074°07'0 0.0
2018-May-25 10:43N 39°45' W 074°07'0 0.0
2018-May-25 09:25N 39°45' W 074°07'0 0.0
2018-May-25 08:49N 39°45' W 074°07'0 0.0
2018-May-25 08:28N 39°45' W 074°07'0 0.0
2018-May-25 07:58N 39°45' W 074°07'0 0.0
2018-May-25 07:23N 39°45' W 074°07'2 4.7
2018-May-25 07:00N 39°46' W 074°05'3 5.7
2018-May-25 06:28N 39°48' W 074°02'13 7.6
2018-May-25 04:47N 39°52' W 073°46'2 7.3
2018-May-25 04:30N 39°53' W 073°44'4 7.4
2018-May-25 04:00N 39°54' W 073°39'4 7.5
2018-May-25 03:30N 39°56' W 073°35'4 7.6
2018-May-25 03:00N 39°57' W 073°30'4 7.6
2018-May-25 02:30N 39°58' W 073°25'4 7.5
2018-May-25 02:00N 39°60' W 073°21'4 7.6
2018-May-25 01:29N 40°01' W 073°16'42 2.5
2018-May-24 08:49N 39°45' W 074°07'0 0.0
2018-May-24 08:30N 39°45' W 074°07'2 5.0
2018-May-24 08:00N 39°46' W 074°04'1 0.0
2018-May-23 11:22N 39°47' W 074°03'4 0.2
2018-May-22 15:11N 39°45' W 074°07'0 0.0
2018-May-22 14:05N 39°45' W 074°07'0 0.0
2018-May-22 13:50N 39°45' W 074°07'0 0.0
2018-May-22 13:28N 39°45' W 074°07'0 0.1
2018-May-22 12:58N 39°45' W 074°07'0 0.1
2018-May-22 12:28N 39°45' W 074°07'0 0.0
2018-May-22 11:55N 39°45' W 074°07'0 0.0
2018-May-22 11:28N 39°45' W 074°07'0 0.0
2018-May-22 10:55N 39°45' W 074°07'0 0.0
2018-May-22 10:28N 39°45' W 074°07'0 0.0
2018-May-22 09:58N 39°45' W 074°07'0 0.1
2018-May-22 09:17N 39°45' W 074°07'1 4.2
2018-May-22 09:00N 39°46' W 074°06'3 5.0
2018-May-22 08:26N 39°47' W 074°03'3 7.4
2018-May-22 08:00N 39°48' W 073°59'4 7.4
2018-May-22 07:27N 39°50' W 073°54'3 7.5
2018-May-22 07:00N 39°51' W 073°50'4 7.5
2018-May-22 06:30N 39°53' W 073°45'4 7.7
2018-May-22 06:00N 39°54' W 073°40'4 7.6
2018-May-22 05:29N 39°56' W 073°36'23 1.2
2018-May-21 10:56N 39°47' W 074°03'4 0.2
2018-May-20 18:08N 39°45' W 074°07'0 0.0
2018-May-20 17:44N 39°45' W 074°07'0 0.0
2018-May-20 17:26N 39°45' W 074°07'0 0.0
2018-May-19 23:31N 39°45' W 074°07'0 0.0
2018-May-19 17:01N 39°45' W 074°07'0 0.0
2018-May-19 16:55N 39°45' W 074°07'0 0.0
2018-May-19 16:25N 39°45' W 074°07'0 0.0
2018-May-19 09:49N 39°45' W 074°07'0 0.0
2018-May-19 09:19N 39°45' W 074°07'0 0.0
2018-May-18 13:37N 39°45' W 074°07'0 0.0
2018-May-18 08:01N 39°45' W 074°07'0 0.0
2018-May-18 07:43N 39°45' W 074°07'0 0.0
2018-May-18 02:46N 39°45' W 074°07'0 0.0
2018-May-17 17:34N 39°45' W 074°07'0 0.0
2018-May-17 17:22N 39°45' W 074°07'0 0.0
2018-May-17 16:58N 39°45' W 074°07'0 0.0
2018-May-17 10:52N 39°45' W 074°07'0 0.0
2018-May-17 09:52N 39°45' W 074°07'0 0.0
2018-May-17 06:34N 39°45' W 074°07'0 0.0
2018-May-17 06:28N 39°45' W 074°07'0 0.0
2018-May-16 17:05N 39°45' W 074°07'0 0.0
2018-May-16 15:05N 39°45' W 074°07'0 0.0
2018-May-16 07:17N 39°45' W 074°07'0 0.0
2018-May-16 05:11N 39°45' W 074°07'0 0.0
2018-May-16 04:41N 39°45' W 074°07'0 0.0
2018-May-16 04:17N 39°45' W 074°07'  

Dump ship's entire track history